Current Conditions (Updated 2:30pm on 7/18/24)
Temperature
 88°
0.08
90°  
73°  
0
10
20
30
40
50
60
70
80
90
100
Dew Point
74°
78°  
70°  
-20
-10
0
10
20
30
40
50
60
70
80
Heat Index
97°
100°  
79°  
30
40
50
60
70
80
90
100
110
120
130
Heat Index
Humidity
63%
94% 
61% 
0
10
20
30
40
50
60
70
80
90
100
Barometer
29.90
   Steady
29.93  
29.81  
28.00
28.30
28.60
28.90
29.20
29.50
29.80
30.10
30.40
30.70
31.00
Temperature
Dew Point
Humidity
Pressure
Wind
0mph
WNW
Daily Rain
.00
.05
.10
.15
.20
.25
.30
.35
.40
.45
.50
Rain Today
 0.00" 
Month Rain
0.00
1.00
2.00
3.00
4.00
5.00
6.00
7.00
8.00
9.00
10.00
Month Rain
 5.98" 
Year Rain
0.00
5.00
10.00
15.00
20.00
25.00
30.00
35.00
40.00
45.00
50.00
Year Rain
 32.48" 
Sun & Moon Data
Sunrise 5:53am
Sunset 8:25pm
Moonrise 6:30pm
Moonset 2:32am
Moon % 85%
Other Rain Data
Past Hour 0.00 Past 24 Hours 0.00
Past 3 Hours 0.00 Past 7 Days 5.98
Past 6 Hours 0.00
Cloud Height
3541


7 Day Forecast
NWS Forecast for Georgetown, Sussex County Airport DE
National Weather Service Forecast for: Georgetown, Sussex County Airport DE
Issued by: National Weather Service Philadelphia, PA
Updated: 1:09 pm EDT Jul 18, 2024

Georgetown,DE.
 
This
Afternoon
This Afternoon: A chance of showers and thunderstorms.  Partly sunny, with a high near 87. North wind around 5 mph.  Chance of precipitation is 40%. New rainfall amounts of less than a tenth of an inch, except higher amounts possible in thunderstorms.
Chance
T-storms

Tonight

Tonight: A slight chance of showers and thunderstorms before 9pm.  Mostly cloudy, then gradually becoming mostly clear, with a low around 68. Calm wind becoming north around 5 mph.  Chance of precipitation is 20%.
Slight Chance
T-storms then
Partly Cloudy
Friday

Friday: Sunny, with a high near 84. Northeast wind 5 to 10 mph.
Sunny

Friday
Night
Friday Night: Mostly clear, with a low around 67. Calm wind.
Mostly Clear

Saturday

Saturday: A slight chance of showers between 11am and 2pm, then a slight chance of showers and thunderstorms after 2pm.  Partly sunny, with a high near 84. Calm wind becoming southeast around 5 mph in the afternoon.  Chance of precipitation is 20%.
Slight Chance
Showers then
Slight Chance
T-storms
Saturday
Night
Saturday Night: A chance of showers and thunderstorms.  Mostly cloudy, with a low around 70. Chance of precipitation is 30%.
Chance
Showers

Sunday

Sunday: A chance of showers and thunderstorms after 2pm.  Partly sunny, with a high near 86. Chance of precipitation is 30%.
Partly Sunny
then Chance
T-storms
Sunday
Night
Sunday Night: A chance of showers and thunderstorms before 8pm, then a chance of showers and thunderstorms after 2am.  Partly cloudy, with a low around 69. Chance of precipitation is 30%.
Chance
T-storms

Monday

Monday: A chance of showers and thunderstorms before 8am, then a chance of showers and thunderstorms after 2pm.  Partly sunny, with a high near 86. Chance of precipitation is 40%.
Chance
T-storms

Hi 87 °F Lo 68 °F Hi 84 °F Lo 67 °F Hi 84 °F Lo 70 °F Hi 86 °F Lo 69 °F Hi 86 °F

 

This Afternoon
 
A chance of showers and thunderstorms. Partly sunny, with a high near 87. North wind around 5 mph. Chance of precipitation is 40%. New rainfall amounts of less than a tenth of an inch, except higher amounts possible in thunderstorms.
Tonight
 
A slight chance of showers and thunderstorms before 9pm. Mostly cloudy, then gradually becoming mostly clear, with a low around 68. Calm wind becoming north around 5 mph. Chance of precipitation is 20%.
Friday
 
Sunny, with a high near 84. Northeast wind 5 to 10 mph.
Friday Night
 
Mostly clear, with a low around 67. Calm wind.
Saturday
 
A slight chance of showers between 11am and 2pm, then a slight chance of showers and thunderstorms after 2pm. Partly sunny, with a high near 84. Calm wind becoming southeast around 5 mph in the afternoon. Chance of precipitation is 20%.
Saturday Night
 
A chance of showers and thunderstorms. Mostly cloudy, with a low around 70. Chance of precipitation is 30%.
Sunday
 
A chance of showers and thunderstorms after 2pm. Partly sunny, with a high near 86. Chance of precipitation is 30%.
Sunday Night
 
A chance of showers and thunderstorms before 8pm, then a chance of showers and thunderstorms after 2am. Partly cloudy, with a low around 69. Chance of precipitation is 30%.
Monday
 
A chance of showers and thunderstorms before 8am, then a chance of showers and thunderstorms after 2pm. Partly sunny, with a high near 86. Chance of precipitation is 40%.
Monday Night
 
A chance of showers and thunderstorms. Mostly cloudy, with a low around 70. Chance of precipitation is 40%.
Tuesday
 
A chance of showers and thunderstorms. Partly sunny, with a high near 87. Chance of precipitation is 40%.
Tuesday Night
 
A chance of showers and thunderstorms. Mostly cloudy, with a low around 72. Chance of precipitation is 40%.
Wednesday
 
A chance of showers and thunderstorms. Partly sunny, with a high near 88. Chance of precipitation is 40%.

 

Forecast from NOAA-NWS for Georgetown, Sussex County Airport DE.

Current Front Map
Current Radar
Current Cloud Map
Area Weather Current Conditions
Nearby METAR Reports

KPHL - Philadelphia, Pennsylvania
Updated: Thu, 18-Jul-2024 1:54pm EDT
Mostly Cloudy
Mostly Cloudy
 Wind from N
Wind: N 13 mph , 20 km/h
Temperature: 84°F , 29°C
Heat Index: 86°F , 30°C
Dew Point: 66°F , 19°C
Humidity: 55%
Barometer: 29.93 inHg , 1013.5 hPa
Clouds: Mostly Cloudy
Visibility: 10 miles , 16 km
Cloud details: Partly Cloudy 4000 ft
Mostly Cloudy 17000 ft
Mostly Cloudy 23000 ft
2024/07/18 17:54 KPHL 181754Z 35011KT 10SM SCT040 BKN170 BKN230 29/19 A2993 RMK AO2 SLP134 T02940189 10300 20239 55002 $
KMPO - Mt. Pocono, Pennsylvania
Updated: Thu, 18-Jul-2024 1:53pm EDT
Few Clouds
Few Clouds
 Wind from NW
Wind: NW 10 mph , 17 km/h
Temperature: 73°F , 23°C
Dew Point: 57°F , 14°C
Humidity: 57%
Barometer: 30.01 inHg , 1016.3 hPa
Clouds: Few Clouds
Visibility: 10 miles , 16 km
Cloud details: Few Clouds 3700 ft
2024/07/18 17:53 KMPO 181753Z AUTO 31009KT 10SM FEW037 23/14 A3001 RMK AO2 SLP151 T02280139 10233 20183 53000
 
KACY - Atlantic City, New Jersey
Updated: Thu, 18-Jul-2024 1:54pm EDT
Mostly Cloudy
Mostly Cloudy
 Wind from N
Wind: N 7 mph , 11 km/h
Temperature: 84°F , 29°C
Heat Index: 87°F , 31°C
Dew Point: 68°F , 20°C
Humidity: 58%
Barometer: 29.92 inHg , 1013.2 hPa
Clouds: Mostly Cloudy
Visibility: 10 miles , 16 km
Cloud details: Mostly Cloudy 11000 ft
2024/07/18 17:54 KACY 181754Z 35006KT 10SM BKN110 29/20 A2992 RMK AO2 SLP131 T02890200 10289 20239 58002 $
KWWD - Wildwood, New Jersey
Updated: Thu, 18-Jul-2024 1:56pm EDT
Overcast
Overcast
 Wind from E
Wind: E 6 mph , 9 km/h
Temperature: 81°F , 27°C
Heat Index: 86°F , 30°C
Dew Point: 73°F , 23°C
Humidity: 79%
Barometer: 29.93 inHg , 1013.5 hPa
Clouds: Overcast
Visibility: 10 miles , 16 km
Cloud details: Mostly Cloudy 2300 ft
Overcast 3500 ft
2024/07/18 17:56 KWWD 181756Z AUTO 08005KT 10SM BKN023 OVC035 27/23 A2993 RMK AO2 SLP137 T02720228 10278 20256 50000
 
KGED - Georgetown, Delaware
Updated: Thu, 18-Jul-2024 1:54pm EDT
Partly Cloudy
Partly Cloudy
 Wind from varies
Wind: varies 5 mph , 7 km/h
Temperature: 84°F , 29°C
Heat Index: 88°F , 31°C
Dew Point: 70°F , 21°C
Humidity: 62%
Barometer: 29.93 inHg , 1013.5 hPa
Clouds: Partly Cloudy
Visibility: 10 miles , 16 km
Cloud details: Few Clouds 3300 ft
Partly Cloudy 8000 ft
Partly Cloudy 9500 ft
2024/07/18 17:54 KGED 181754Z AUTO VRB04KT 10SM FEW033 SCT080 SCT095 29/21 A2993 RMK AO2 LTG DSNT S SLP135 T02890211 10306 20256 53001
KDOV - Dover Afb, Delaware
Updated: Thu, 18-Jul-2024 2:07pm EDT
Partly Cloudy
Partly Cloudy
 Wind from NE
Wind: NE 7 mph , 11 km/h
Temperature: 82°F , 28°C
Heat Index: 86°F , 30°C
Dew Point: 72°F , 22°C
Humidity: 70%
Barometer: 29.91 inHg , 1012.9 hPa
Clouds: Partly Cloudy
Visibility: 10 miles , 16 km
Cloud details: Partly Cloudy 2700 ft
Partly Cloudy 18000 ft
2024/07/18 18:07 KDOV 181807Z AUTO 05006KT 10SM SCT027 SCT180 28/22 A2991 RMK AO2 LTG DSNT S SLP132
 
KOXB - Ocean City, Maryland
Updated: Thu, 18-Jul-2024 2:05pm EDT
Nearby thunderstorm, Light rain, Mist, Overcast
Nearby thunderstorm, Light rain, Mist, Overcast
 Wind from calm
Wind: Calm
Temperature: 73°F , 23°C
Dew Point: 72°F , 22°C
Humidity: 94%
Barometer: 29.94 inHg , 1013.9 hPa
Summary: Nearby thunderstorm, Light rain, Mist
Clouds: Overcast
Visibility: 6 miles , 10 km
Cloud details: Few Clouds 600 ft
Mostly Cloudy 7000 ft
Overcast 10000 ft
2024/07/18 18:05 KOXB 181805Z AUTO 00000KT 6SM VCTS -RA BR FEW006 BKN070 OVC100 23/22 A2994 RMK AO2 TSE05 P0001 T02330222
KSBY - Salisbury, Maryland
Updated: Thu, 18-Jul-2024 1:54pm EDT
Overcast
Overcast
 Wind from NNW
Wind: NNW 8 mph , 13 km/h
Temperature: 84°F , 29°C
Heat Index: 89°F , 32°C
Dew Point: 72°F , 22°C
Humidity: 66%
Barometer: 29.93 inHg , 1013.5 hPa
Clouds: Overcast
Visibility: 10 miles , 16 km
Cloud details: Few Clouds 3400 ft
Mostly Cloudy 5000 ft
Overcast 8000 ft
2024/07/18 17:54 KSBY 181754Z 34007KT 10SM FEW034 BKN050 OVC080 29/22 A2993 RMK AO2 LTG DSNT E-S SLP137 T02890217 10306 20256 53005
Severe Weather Map